Time;durP1;ratioP1;P1;durP2;ratioP2;P2;SDS_P1;SDS_P2;PMS_P1;PMS_P2;Temp;Humidity;BMP_temperature;BMP_pressure;BME280_temperature;BME280_humidity;BME280_pressure;Samples;Min_cycle;Max_cycle;Signal;HPM_P1;HPM_P2
2022/06/20 00:00:36;;;;;;;14.48;3.67;;;;;;;;;;5025547;28;20036;-68
2022/06/20 00:03:03;;;;;;;16.92;3.88;;;;;;;;;;5037698;28;20037;-68
2022/06/20 00:05:31;;;;;;;15.82;3.72;;;;;;;;;;5029927;28;20029;-67
2022/06/20 00:07:57;;;;;;;14.13;3.80;;;;;;;;;;5027691;28;20047;-68
2022/06/20 00:10:24;;;;;;;12.23;3.60;;;;;;;;;;5035067;28;20037;-68
2022/06/20 00:12:51;;;;;;;15.02;4.47;;;;;;;;;;5029645;28;20022;-68
2022/06/20 00:15:22;;;;;;;18.98;4.47;;;;;;;;;;5036188;28;20029;-67
2022/06/20 00:17:48;;;;;;;23.10;4.72;;;;;;;;;;5036923;28;20029;-68
2022/06/20 00:20:15;;;;;;;24.38;5.10;;;;;;;;;;5033668;28;20033;-68
2022/06/20 00:22:42;;;;;;;16.90;4.38;;;;;;;;;;5032023;28;20040;-68
2022/06/20 00:25:09;;;;;;;18.52;4.63;;;;;;;;;;5033092;28;20025;-68
2022/06/20 00:27:35;;;;;;;19.90;4.47;;;;;;;;;;5030235;28;20053;-68
2022/06/20 00:30:02;;;;;;;17.08;4.50;;;;;;;;;;5024623;28;20102;-68
2022/06/20 00:32:28;;;;;;;17.60;4.60;;;;;;;;;;5031596;28;20025;-69
2022/06/20 00:34:54;;;;;;;22.73;6.47;;;;;;;;;;5034313;28;20049;-68
2022/06/20 00:37:20;;;;;;;19.88;5.18;;;;;;;;;;5031807;28;20064;-68
2022/06/20 00:39:47;;;;;;;22.88;5.32;;;;;;;;;;5020297;28;20419;-69
2022/06/20 00:42:13;;;;;;;22.88;5.03;;;;;;;;;;5031413;28;20506;-68
2022/06/20 00:44:42;;;;;;;18.42;5.43;;;;;;;;;;5024372;28;20552;-69
2022/06/20 00:47:11;;;;;;;18.67;5.15;;;;;;;;;;5030522;28;20033;-68
2022/06/20 00:49:43;;;;;;;21.63;5.32;;;;;;;;;;5026261;28;20059;-68
2022/06/20 00:52:15;;;;;;;22.38;5.10;;;;;;;;;;5023978;28;20029;-68
2022/06/20 00:54:50;;;;;;;23.98;5.93;;;;;;;;;;5027010;28;20044;-68
2022/06/20 00:57:25;;;;;;;19.05;4.88;;;;;;;;;;5030350;28;20033;-68
2022/06/20 00:59:54;;;;;;;23.23;5.00;;;;;;;;;;5020792;28;20040;-67
2022/06/20 01:02:25;;;;;;;23.58;4.78;;;;;;;;;;5028013;28;20465;-68
2022/06/20 01:05:11;;;;;;;19.30;5.18;;;;;;;;;;5028091;28;20305;-69
2022/06/20 01:07:37;;;;;;;19.55;4.57;;;;;;;;;;5020712;28;20036;-68
2022/06/20 01:10:04;;;;;;;18.40;4.63;;;;;;;;;;5028060;28;20494;-68
2022/06/20 01:12:32;;;;;;;19.05;4.53;;;;;;;;;;5032896;28;20030;-69
2022/06/20 01:14:58;;;;;;;20.10;4.03;;;;;;;;;;5029514;28;20021;-69
2022/06/20 01:17:28;;;;;;;13.93;3.95;;;;;;;;;;5030429;28;20423;-69
2022/06/20 01:20:29;;;;;;;17.17;4.00;;;;;;;;;;5033818;28;20052;-69
2022/06/20 01:23:08;;;;;;;17.13;4.47;;;;;;;;;;4991309;28;20030;-69
2022/06/20 01:25:37;;;;;;;11.73;3.25;;;;;;;;;;5031549;28;20033;-69
2022/06/20 01:28:03;;;;;;;14.85;3.67;;;;;;;;;;5032526;28;20705;-70
2022/06/20 01:30:33;;;;;;;17.20;3.70;;;;;;;;;;5031124;28;20098;-69
2022/06/20 01:32:59;;;;;;;11.40;3.65;;;;;;;;;;5029764;28;20344;-69
2022/06/20 01:38:13;;;;;;;13.00;4.10;;;;;;;;;;5030947;28;20044;-69
2022/06/20 01:42:18;;;;;;;9.77;3.08;;;;;;;;;;5032592;28;20069;-69
2022/06/20 01:43:27;;;;;;;12.82;2.78;;;;;;;;;;5029751;28;20051;-69
2022/06/20 01:45:59;;;;;;;11.02;2.83;;;;;;;;;;5029084;28;20388;-68
2022/06/20 01:48:27;;;;;;;15.70;2.60;;;;;;;;;;5027231;28;20033;-68
2022/06/20 01:50:53;;;;;;;19.08;3.55;;;;;;;;;;5034606;28;20037;-68
2022/06/20 01:53:22;;;;;;;13.05;2.70;;;;;;;;;;5048319;28;20091;-68
2022/06/20 01:55:51;;;;;;;10.20;2.60;;;;;;;;;;5025172;28;20052;-68
2022/06/20 01:58:19;;;;;;;28.42;3.35;;;;;;;;;;5031379;28;20057;-68
2022/06/20 02:00:45;;;;;;;14.52;2.88;;;;;;;;;;5030805;28;20033;-68
2022/06/20 02:03:14;;;;;;;8.95;3.05;;;;;;;;;;5032841;28;20047;-68
2022/06/20 02:05:42;;;;;;;11.95;2.92;;;;;;;;;;5030686;28;20037;-68
2022/06/20 02:08:09;;;;;;;12.38;2.50;;;;;;;;;;5028847;28;20025;-68
2022/06/20 02:10:47;;;;;;;8.90;2.55;;;;;;;;;;5033767;28;20075;-68
2022/06/20 02:13:14;;;;;;;14.02;3.42;;;;;;;;;;5027406;28;20431;-67
2022/06/20 02:15:40;;;;;;;10.55;2.75;;;;;;;;;;5033291;28;20155;-68
2022/06/20 02:18:08;;;;;;;13.85;3.97;;;;;;;;;;5032197;28;20059;-68
2022/06/20 02:20:38;;;;;;;14.05;2.53;;;;;;;;;;5034613;28;20032;-68
2022/06/20 02:23:04;;;;;;;19.43;3.63;;;;;;;;;;5031402;28;20033;-68
2022/06/20 02:25:32;;;;;;;11.02;2.70;;;;;;;;;;5031713;28;20035;-68
2022/06/20 02:28:02;;;;;;;10.82;2.63;;;;;;;;;;5034547;28;20524;-68
2022/06/20 02:30:29;;;;;;;13.82;3.35;;;;;;;;;;5031109;28;20029;-67
2022/06/20 02:33:04;;;;;;;10.68;3.42;;;;;;;;;;5029557;28;20030;-68
2022/06/20 02:35:30;;;;;;;11.13;3.00;;;;;;;;;;5031785;28;20079;-68
2022/06/20 02:37:56;;;;;;;12.88;3.15;;;;;;;;;;5038281;28;20111;-68
2022/06/20 02:40:25;;;;;;;10.15;2.95;;;;;;;;;;5028885;28;20117;-68
2022/06/20 02:43:06;;;;;;;18.88;3.20;;;;;;;;;;5035361;28;20155;-68
2022/06/20 02:45:33;;;;;;;9.77;3.05;;;;;;;;;;5026496;28;20106;-68
2022/06/20 02:48:01;;;;;;;16.38;3.38;;;;;;;;;;5027168;28;20501;-67
2022/06/20 02:50:30;;;;;;;17.35;2.65;;;;;;;;;;5026744;28;20026;-67
2022/06/20 02:53:01;;;;;;;15.85;3.08;;;;;;;;;;5036299;28;20025;-67
2022/06/20 02:55:28;;;;;;;8.23;2.43;;;;;;;;;;5032349;28;20044;-69
2022/06/20 02:58:00;;;;;;;15.70;3.50;;;;;;;;;;5035905;28;20052;-68
2022/06/20 03:00:29;;;;;;;11.65;2.55;;;;;;;;;;5027781;28;20106;-68
2022/06/20 03:02:58;;;;;;;12.90;2.70;;;;;;;;;;5026734;28;20486;-68
2022/06/20 03:05:24;;;;;;;11.88;3.03;;;;;;;;;;5036137;28;20029;-68
2022/06/20 03:07:50;;;;;;;12.85;3.33;;;;;;;;;;5032704;28;20040;-68
2022/06/20 03:10:16;;;;;;;16.00;3.30;;;;;;;;;;5027086;28;20041;-68
2022/06/20 03:12:42;;;;;;;13.18;3.30;;;;;;;;;;5026885;28;20167;-68
2022/06/20 03:15:08;;;;;;;11.82;3.88;;;;;;;;;;5024234;28;20030;-68
2022/06/20 03:17:35;;;;;;;13.70;3.65;;;;;;;;;;5032068;28;20618;-68
2022/06/20 03:20:04;;;;;;;9.68;3.15;;;;;;;;;;5025570;28;20040;-68
2022/06/20 03:22:38;;;;;;;18.00;3.33;;;;;;;;;;5028585;28;20037;-68
2022/06/20 03:25:05;;;;;;;12.60;3.20;;;;;;;;;;5029867;28;20399;-68
2022/06/20 03:27:34;;;;;;;18.08;3.10;;;;;;;;;;5029785;28;20115;-68
2022/06/20 03:30:02;;;;;;;13.05;3.53;;;;;;;;;;5034631;28;20028;-68
2022/06/20 03:32:28;;;;;;;17.05;4.68;;;;;;;;;;5026383;28;20029;-68
2022/06/20 03:34:54;;;;;;;20.73;3.63;;;;;;;;;;5025886;28;20033;-68
2022/06/20 03:37:21;;;;;;;14.40;3.83;;;;;;;;;;5029714;28;20017;-68
2022/06/20 03:39:48;;;;;;;12.00;3.63;;;;;;;;;;5026497;28;20103;-69
2022/06/20 03:42:14;;;;;;;12.98;3.70;;;;;;;;;;5033882;28;20032;-67
2022/06/20 03:44:47;;;;;;;12.98;3.13;;;;;;;;;;5023268;28;20471;-67
2022/06/20 03:47:17;;;;;;;18.33;3.85;;;;;;;;;;5028364;28;20021;-67
2022/06/20 03:49:54;;;;;;;13.00;3.70;;;;;;;;;;5026760;28;20041;-67
2022/06/20 03:52:24;;;;;;;14.85;3.85;;;;;;;;;;5031597;28;20021;-67
2022/06/20 03:55:03;;;;;;;14.95;4.50;;;;;;;;;;5032927;28;20112;-68
2022/06/20 03:57:48;;;;;;;14.40;3.33;;;;;;;;;;5028311;28;20045;-68
2022/06/20 04:00:15;;;;;;;19.35;3.60;;;;;;;;;;5027135;28;20144;-68
2022/06/20 04:02:48;;;;;;;15.30;3.53;;;;;;;;;;5030819;28;20037;-68
2022/06/20 04:05:14;;;;;;;16.90;4.05;;;;;;;;;;5027493;28;20684;-69
2022/06/20 04:07:43;;;;;;;17.15;3.83;;;;;;;;;;5033330;28;20032;-68
2022/06/20 04:12:58;;;;;;;14.27;3.58;;;;;;;;;;5029803;28;20108;-69
2022/06/20 04:15:30;;;;;;;12.25;2.97;;;;;;;;;;5031875;28;20026;-69
2022/06/20 04:18:28;;;;;;;18.75;4.10;;;;;;;;;;5028323;28;20034;-69
2022/06/20 04:21:07;;;;;;;12.70;3.55;;;;;;;;;;5022141;28;20041;-68
2022/06/20 04:23:37;;;;;;;12.82;3.08;;;;;;;;;;5046017;28;20057;-68
2022/06/20 04:26:11;;;;;;;15.53;4.00;;;;;;;;;;5030340;28;20106;-68
2022/06/20 04:28:43;;;;;;;10.02;2.88;;;;;;;;;;5024829;28;20316;-67
2022/06/20 04:31:22;;;;;;;10.88;3.35;;;;;;;;;;5022760;28;20033;-67
2022/06/20 04:33:54;;;;;;;14.27;3.40;;;;;;;;;;5030872;28;20017;-67
2022/06/20 04:36:27;;;;;;;18.75;3.40;;;;;;;;;;5023500;28;20041;-68
2022/06/20 04:39:19;;;;;;;14.65;3.15;;;;;;;;;;5030282;28;20513;-67
2022/06/20 04:41:49;;;;;;;16.65;3.47;;;;;;;;;;5027515;28;20032;-68
2022/06/20 04:44:38;;;;;;;19.75;3.35;;;;;;;;;;5027698;28;20039;-67
2022/06/20 04:47:07;;;;;;;11.77;3.13;;;;;;;;;;5030509;28;20045;-67
2022/06/20 04:49:34;;;;;;;22.35;4.20;;;;;;;;;;5034637;28;20036;-67
2022/06/20 04:52:01;;;;;;;11.27;3.70;;;;;;;;;;5033511;28;20025;-67
2022/06/20 04:54:27;;;;;;;15.52;3.95;;;;;;;;;;5034891;28;20040;-66
2022/06/20 04:56:54;;;;;;;12.05;3.30;;;;;;;;;;5033812;28;20045;-66
2022/06/20 04:59:29;;;;;;;15.68;3.47;;;;;;;;;;5034503;28;20026;-66
2022/06/20 05:01:57;;;;;;;16.15;3.83;;;;;;;;;;5029525;28;20029;-67
2022/06/20 05:04:31;;;;;;;13.10;3.10;;;;;;;;;;5034537;28;20120;-72
2022/06/20 05:07:00;;;;;;;17.00;3.42;;;;;;;;;;5028626;28;20033;-72
2022/06/20 05:09:26;;;;;;;14.65;3.33;;;;;;;;;;5037744;28;20307;-72
2022/06/20 05:12:02;;;;;;;10.10;3.30;;;;;;;;;;5038502;28;20471;-73
2022/06/20 05:14:36;;;;;;;15.13;3.13;;;;;;;;;;5038539;28;20493;-72
2022/06/20 05:17:03;;;;;;;14.10;3.28;;;;;;;;;;5036131;28;20060;-72
2022/06/20 05:19:35;;;;;;;11.95;3.60;;;;;;;;;;5031027;28;20025;-71
2022/06/20 05:22:03;;;;;;;11.52;2.70;;;;;;;;;;5024346;28;20460;-72
2022/06/20 05:24:33;;;;;;;14.43;4.38;;;;;;;;;;5041891;28;20045;-72
2022/06/20 05:27:01;;;;;;;11.25;3.35;;;;;;;;;;5039143;28;20044;-72
2022/06/20 05:29:31;;;;;;;17.38;3.17;;;;;;;;;;5038300;28;20108;-73
2022/06/20 05:31:59;;;;;;;12.35;3.50;;;;;;;;;;5031025;28;20056;-71
2022/06/20 05:34:34;;;;;;;19.17;3.72;;;;;;;;;;5032013;28;20018;-72
2022/06/20 05:37:03;;;;;;;14.60;3.58;;;;;;;;;;5032899;28;20060;-72
2022/06/20 05:39:35;;;;;;;13.17;3.13;;;;;;;;;;5043331;28;20056;-72
2022/06/20 05:42:01;;;;;;;9.88;2.92;;;;;;;;;;5032401;28;20042;-72
2022/06/20 05:44:28;;;;;;;13.00;3.20;;;;;;;;;;5037708;28;20021;-72
2022/06/20 05:47:00;;;;;;;11.57;3.05;;;;;;;;;;5031332;28;20046;-72
2022/06/20 05:49:30;;;;;;;12.23;3.13;;;;;;;;;;5034974;28;21426;-72
2022/06/20 05:51:56;;;;;;;20.90;4.03;;;;;;;;;;5028190;28;20039;-72
2022/06/20 05:54:32;;;;;;;12.15;3.10;;;;;;;;;;5029259;28;20421;-72
2022/06/20 05:57:01;;;;;;;13.43;2.97;;;;;;;;;;5032006;28;20050;-71
2022/06/20 05:59:27;;;;;;;11.73;3.40;;;;;;;;;;5038873;28;20083;-72
2022/06/20 06:01:54;;;;;;;14.77;3.55;;;;;;;;;;5034391;28;20024;-72
2022/06/20 06:04:27;;;;;;;11.98;3.58;;;;;;;;;;5030363;28;20037;-73
2022/06/20 06:06:57;;;;;;;15.40;3.15;;;;;;;;;;5023706;28;20060;-73
2022/06/20 06:09:31;;;;;;;14.43;3.30;;;;;;;;;;5031718;28;20029;-72
2022/06/20 06:12:00;;;;;;;13.45;3.45;;;;;;;;;;5028493;28;20497;-72
2022/06/20 06:14:29;;;;;;;16.42;3.05;;;;;;;;;;5040103;28;20029;-71
2022/06/20 06:17:14;;;;;;;16.63;3.53;;;;;;;;;;5024759;28;20021;-73
2022/06/20 06:19:42;;;;;;;13.45;3.42;;;;;;;;;;5033128;28;20108;-71
2022/06/20 06:22:27;;;;;;;12.00;3.10;;;;;;;;;;5038198;28;20143;-73
2022/06/20 06:24:56;;;;;;;16.70;3.45;;;;;;;;;;5041617;28;20074;-73
2022/06/20 06:27:24;;;;;;;14.00;3.35;;;;;;;;;;5027180;28;20035;-72
2022/06/20 06:30:10;;;;;;;15.02;3.85;;;;;;;;;;5022718;28;20025;-72
2022/06/20 06:32:43;;;;;;;11.20;3.33;;;;;;;;;;5023708;28;20046;-71
2022/06/20 06:35:09;;;;;;;13.60;3.92;;;;;;;;;;5024362;28;20122;-73
2022/06/20 06:37:42;;;;;;;12.32;3.75;;;;;;;;;;5022204;28;20071;-72
2022/06/20 06:40:11;;;;;;;19.83;4.18;;;;;;;;;;5027679;28;20259;-72
2022/06/20 06:42:38;;;;;;;16.45;4.25;;;;;;;;;;5016077;28;20473;-72
2022/06/20 06:45:06;;;;;;;15.02;3.60;;;;;;;;;;5015539;28;20021;-73
2022/06/20 06:47:40;;;;;;;7.55;3.10;;;;;;;;;;5032300;28;20030;-72
2022/06/20 06:50:27;;;;;;;11.77;3.72;;;;;;;;;;5027611;28;20167;-71
2022/06/20 06:53:22;;;;;;;14.30;3.58;;;;;;;;;;5017043;28;20517;-70
2022/06/20 06:55:51;;;;;;;12.80;3.40;;;;;;;;;;4971569;28;20035;-72
2022/06/20 06:58:17;;;;;;;11.38;3.15;;;;;;;;;;5023068;28;20037;-73
2022/06/20 07:00:48;;;;;;;10.82;3.28;;;;;;;;;;5023023;28;20033;-73
2022/06/20 07:03:27;;;;;;;13.05;3.15;;;;;;;;;;5025508;28;20037;-74
2022/06/20 07:05:55;;;;;;;10.27;3.05;;;;;;;;;;5023386;28;20021;-73
2022/06/20 07:08:26;;;;;;;13.10;3.22;;;;;;;;;;5021920;28;20522;-73
2022/06/20 07:10:56;;;;;;;9.93;2.85;;;;;;;;;;5023007;28;20041;-72
2022/06/20 07:13:27;;;;;;;10.60;3.85;;;;;;;;;;5023399;28;20030;-73
2022/06/20 07:15:55;;;;;;;16.55;3.42;;;;;;;;;;5022123;28;20021;-73
2022/06/20 07:18:37;;;;;;;13.48;3.35;;;;;;;;;;5021722;28;20042;-73
2022/06/20 07:21:04;;;;;;;14.50;3.17;;;;;;;;;;5019890;28;20043;-72
2022/06/20 07:23:30;;;;;;;11.93;3.40;;;;;;;;;;5026575;28;20092;-72
2022/06/20 07:25:57;;;;;;;12.05;3.22;;;;;;;;;;5025037;28;20103;-72
2022/06/20 07:28:29;;;;;;;15.00;2.97;;;;;;;;;;5025502;28;20032;-72
2022/06/20 07:31:01;;;;;;;10.23;3.45;;;;;;;;;;5021449;28;20119;-71
2022/06/20 07:33:42;;;;;;;9.70;3.17;;;;;;;;;;5025923;28;20032;-72
2022/06/20 07:36:09;;;;;;;13.30;3.17;;;;;;;;;;5027289;28;20064;-72
2022/06/20 07:38:39;;;;;;;15.07;3.63;;;;;;;;;;5023579;28;20037;-71
2022/06/20 07:41:10;;;;;;;12.98;3.13;;;;;;;;;;5027694;28;20064;-71
2022/06/20 07:43:40;;;;;;;13.35;2.92;;;;;;;;;;5023881;28;20048;-70
2022/06/20 07:46:18;;;;;;;11.07;2.70;;;;;;;;;;5024422;28;20029;-72
2022/06/20 07:48:45;;;;;;;12.98;3.03;;;;;;;;;;5017186;28;20029;-72
2022/06/20 07:51:19;;;;;;;8.98;2.67;;;;;;;;;;5022496;28;20116;-73
2022/06/20 07:53:51;;;;;;;11.60;2.75;;;;;;;;;;5018474;28;20395;-73
2022/06/20 07:56:23;;;;;;;8.05;2.47;;;;;;;;;;5011583;28;20017;-73
2022/06/20 07:58:54;;;;;;;11.27;2.78;;;;;;;;;;5023938;28;20133;-74
2022/06/20 08:01:42;;;;;;;8.90;2.72;;;;;;;;;;5018717;28;20030;-74
2022/06/20 08:04:10;;;;;;;12.23;2.72;;;;;;;;;;5016536;28;20501;-72
2022/06/20 08:06:51;;;;;;;10.23;3.00;;;;;;;;;;5013152;28;20569;-70
2022/06/20 08:09:34;;;;;;;9.65;2.60;;;;;;;;;;5014575;28;20125;-73
2022/06/20 08:12:03;;;;;;;13.38;2.72;;;;;;;;;;5016633;28;20041;-73
2022/06/20 08:14:50;;;;;;;8.67;2.20;;;;;;;;;;5019270;28;20103;-73
2022/06/20 08:17:16;;;;;;;10.35;2.72;;;;;;;;;;5016930;28;20033;-73
2022/06/20 08:19:43;;;;;;;15.52;3.00;;;;;;;;;;5015778;28;20033;-73
2022/06/20 08:22:16;;;;;;;11.15;3.08;;;;;;;;;;5015019;28;20368;-73
2022/06/20 08:24:46;;;;;;;11.80;2.80;;;;;;;;;;5018770;28;20056;-72
2022/06/20 08:27:12;;;;;;;;;;;;;;;;;;5021666;28;20036;-73
2022/06/20 08:29:40;;;;;;;12.02;2.38;;;;;;;;;;5022315;28;20019;-72
2022/06/20 08:32:09;;;;;;;10.27;2.90;;;;;;;;;;5017014;28;20030;-73
2022/06/20 08:34:55;;;;;;;10.18;2.42;;;;;;;;;;5023134;28;20030;-72
2022/06/20 08:37:28;;;;;;;11.77;2.70;;;;;;;;;;5021092;28;20067;-72
2022/06/20 08:40:01;;;;;;;11.05;2.70;;;;;;;;;;5023571;28;20064;-73
2022/06/20 08:42:33;;;;;;;7.50;2.75;;;;;;;;;;5025215;28;20040;-73
2022/06/20 08:45:05;;;;;;;11.85;3.22;;;;;;;;;;5024273;28;20037;-74
2022/06/20 08:47:43;;;;;;;11.23;3.22;;;;;;;;;;5019256;28;20033;-73
2022/06/20 08:50:28;;;;;;;10.52;2.83;;;;;;;;;;5020373;28;20022;-74
2022/06/20 08:53:12;;;;;;;11.02;2.45;;;;;;;;;;5040541;28;20030;-75
2022/06/20 08:55:58;;;;;;;10.13;2.35;;;;;;;;;;5023302;28;20036;-74
2022/06/20 08:58:27;;;;;;;7.13;2.03;;;;;;;;;;5018014;28;20057;-73
2022/06/20 09:00:59;;;;;;;8.63;2.30;;;;;;;;;;5020891;28;20061;-73
2022/06/20 09:03:37;;;;;;;7.85;1.88;;;;;;;;;;5015373;28;20049;-74
2022/06/20 09:06:27;;;;;;;6.22;1.67;;;;;;;;;;5016508;28;20330;-72
2022/06/20 09:08:56;;;;;;;4.57;1.70;;;;;;;;;;5019527;28;20025;-75
2022/06/20 09:11:22;;;;;;;8.02;2.03;;;;;;;;;;5024062;28;20026;-75
2022/06/20 09:13:56;;;;;;;6.13;1.90;;;;;;;;;;5021521;28;20485;-75
2022/06/20 09:16:41;;;;;;;4.93;1.52;;;;;;;;;;5018486;28;20049;-74
2022/06/20 09:19:26;;;;;;;5.00;1.58;;;;;;;;;;5018055;28;20021;-72
2022/06/20 09:21:59;;;;;;;5.25;1.38;;;;;;;;;;5020267;28;20041;-73
2022/06/20 09:24:30;;;;;;;3.97;1.25;;;;;;;;;;5022877;28;20513;-72
2022/06/20 09:27:01;;;;;;;5.82;1.55;;;;;;;;;;5018043;28;20140;-72
2022/06/20 09:29:28;;;;;;;6.60;2.10;;;;;;;;;;5022697;28;20048;-73
2022/06/20 09:32:07;;;;;;;7.05;1.83;;;;;;;;;;5021775;28;20033;-73
2022/06/20 09:34:33;;;;;;;8.95;2.20;;;;;;;;;;5019135;28;20038;-72
2022/06/20 09:37:22;;;;;;;10.20;1.88;;;;;;;;;;5019629;28;20029;-74
2022/06/20 09:39:48;;;;;;;8.73;2.35;;;;;;;;;;5026268;28;20487;-73
2022/06/20 09:42:30;;;;;;;11.52;2.60;;;;;;;;;;5028086;28;20028;-73
2022/06/20 09:45:05;;;;;;;13.50;2.65;;;;;;;;;;5022197;28;20041;-73
2022/06/20 09:47:56;;;;;;;10.20;2.50;;;;;;;;;;5021397;28;20032;-73
2022/06/20 09:50:25;;;;;;;8.77;2.78;;;;;;;;;;5020451;28;20029;-73
2022/06/20 09:53:10;;;;;;;7.00;2.10;;;;;;;;;;5020689;28;20477;-74
2022/06/20 09:55:46;;;;;;;15.43;2.97;;;;;;;;;;5026926;28;20032;-74
2022/06/20 09:58:12;;;;;;;10.55;2.65;;;;;;;;;;5040598;28;20042;-73
2022/06/20 10:00:57;;;;;;;10.38;2.58;;;;;;;;;;5020761;28;20033;-74
2022/06/20 10:03:41;;;;;;;10.90;2.67;;;;;;;;;;5038266;28;20510;-73
2022/06/20 10:06:25;;;;;;;11.02;2.60;;;;;;;;;;5015377;28;20446;-73
2022/06/20 10:09:00;;;;;;;8.00;2.33;;;;;;;;;;5019274;28;20025;-75
2022/06/20 10:11:39;;;;;;;7.85;2.20;;;;;;;;;;5022643;28;20030;-72
2022/06/20 10:14:25;;;;;;;9.13;2.15;;;;;;;;;;5025217;28;20030;-73
2022/06/20 10:16:51;;;;;;;8.07;2.47;;;;;;;;;;5016355;28;20034;-74
2022/06/20 10:19:21;;;;;;;7.40;2.17;;;;;;;;;;5019908;28;20029;-72
2022/06/20 10:22:02;;;;;;;7.28;2.40;;;;;;;;;;5020297;28;20087;-75
2022/06/20 10:24:31;;;;;;;10.82;2.40;;;;;;;;;;5014587;28;20036;-73
2022/06/20 10:27:16;;;;;;;11.52;2.50;;;;;;;;;;5019526;28;20029;-75
2022/06/20 10:30:01;;;;;;;5.43;2.22;;;;;;;;;;5024446;28;20061;-75
2022/06/20 10:32:33;;;;;;;7.95;2.20;;;;;;;;;;5021478;28;20091;-72
2022/06/20 10:35:25;;;;;;;8.52;2.10;;;;;;;;;;5023573;28;20116;-72
2022/06/20 10:37:54;;;;;;;11.55;2.50;;;;;;;;;;5006375;28;20046;-74
2022/06/20 10:40:29;;;;;;;10.40;2.03;;;;;;;;;;5025954;28;20024;-74
2022/06/20 10:43:01;;;;;;;7.57;2.33;;;;;;;;;;5040477;28;20036;-74
2022/06/20 10:45:28;;;;;;;8.43;2.05;;;;;;;;;;5023768;28;20033;-73
2022/06/20 10:48:06;;;;;;;9.30;2.25;;;;;;;;;;5016334;28;20021;-73
2022/06/20 10:50:32;;;;;;;9.40;2.38;;;;;;;;;;5018691;28;20127;-74
2022/06/20 10:53:02;;;;;;;7.97;2.03;;;;;;;;;;5016811;28;20034;-73
2022/06/20 10:55:42;;;;;;;7.75;2.05;;;;;;;;;;5020477;28;20487;-73
2022/06/20 10:58:08;;;;;;;7.30;2.13;;;;;;;;;;5016771;28;20043;-71
2022/06/20 11:00:39;;;;;;;7.97;2.08;;;;;;;;;;5019706;28;20175;-73
2022/06/20 11:03:30;;;;;;;9.82;2.35;;;;;;;;;;5017603;28;20126;-74
2022/06/20 11:06:02;;;;;;;9.00;2.72;;;;;;;;;;5018174;28;20053;-74
2022/06/20 11:08:34;;;;;;;9.80;2.40;;;;;;;;;;5028243;28;20032;-74
2022/06/20 11:11:00;;;;;;;13.07;2.60;;;;;;;;;;5017827;28;20061;-75
2022/06/20 11:13:49;;;;;;;9.80;2.60;;;;;;;;;;5023257;28;20107;-71
2022/06/20 11:16:40;;;;;;;9.32;1.88;;;;;;;;;;5011235;28;20034;-72
2022/06/20 11:19:05;;;;;;;;;;;;;;;;;;5027238;28;20052;-73
2022/06/20 11:21:40;;;;;;;10.60;2.40;;;;;;;;;;5023375;28;19949;-74
2022/06/20 11:24:06;;;;;;;6.45;2.15;;;;;;;;;;5022116;28;20026;-74
2022/06/20 11:26:32;;;;;;;11.77;2.75;;;;;;;;;;5019365;28;20451;-72
2022/06/20 11:29:09;;;;;;;9.50;2.25;;;;;;;;;;5038117;28;20128;-73
2022/06/20 11:31:48;;;;;;;10.02;2.35;;;;;;;;;;5019827;28;20087;-73
2022/06/20 11:34:27;;;;;;;9.98;2.47;;;;;;;;;;5019962;28;20497;-74
2022/06/20 11:37:11;;;;;;;11.70;2.20;;;;;;;;;;5012405;28;20030;-72
2022/06/20 11:39:56;;;;;;;8.93;2.47;;;;;;;;;;5023927;28;20029;-75
2022/06/20 11:42:40;;;;;;;11.70;3.30;;;;;;;;;;5025604;28;20170;-73
2022/06/20 11:45:09;;;;;;;11.70;2.95;;;;;;;;;;5019273;28;20108;-73
2022/06/20 11:47:49;;;;;;;9.52;2.55;;;;;;;;;;5020420;28;20514;-75
2022/06/20 11:50:39;;;;;;;11.45;2.75;;;;;;;;;;5026881;28;20446;-75
2022/06/20 11:53:05;;;;;;;10.52;2.50;;;;;;;;;;5017766;28;20051;-75
2022/06/20 11:55:37;;;;;;;12.20;3.00;;;;;;;;;;5028811;28;20055;-75
2022/06/20 11:58:25;;;;;;;10.63;2.05;;;;;;;;;;5028869;28;20029;-76
2022/06/20 12:00:57;;;;;;;9.73;2.88;;;;;;;;;;5018737;28;20026;-73
2022/06/20 12:03:42;;;;;;;11.15;2.75;;;;;;;;;;5018943;28;20036;-74
2022/06/20 12:06:17;;;;;;;10.52;2.65;;;;;;;;;;5023488;28;20081;-75
2022/06/20 12:08:47;;;;;;;9.40;2.85;;;;;;;;;;5017738;28;20044;-75
2022/06/20 12:11:32;;;;;;;13.10;2.95;;;;;;;;;;5025848;28;20033;-73
2022/06/20 12:14:16;;;;;;;7.95;2.55;;;;;;;;;;5023367;28;20033;-74
2022/06/20 12:16:56;;;;;;;13.63;2.85;;;;;;;;;;5021705;28;20029;-74
2022/06/20 12:25:20;;;;;;;10.00;2.95;;;;;;;;;;5036905;28;20183;-75
2022/06/20 12:27:46;;;;;;;7.82;2.65;;;;;;;;;;5030895;28;20066;-74
2022/06/20 12:30:13;;;;;;;14.80;3.70;;;;;;;;;;5033985;28;20037;-73
2022/06/20 12:32:41;;;;;;;14.70;3.20;;;;;;;;;;5027866;28;20037;-74
2022/06/20 12:35:27;;;;;;;11.85;3.13;;;;;;;;;;5022220;28;20495;-74
2022/06/20 12:38:00;;;;;;;14.52;3.25;;;;;;;;;;5010802;28;20079;-74
2022/06/20 12:40:28;;;;;;;9.43;2.53;;;;;;;;;;5026410;28;20471;-74
2022/06/20 12:43:07;;;;;;;12.52;2.95;;;;;;;;;;5026859;28;20033;-75
2022/06/20 12:45:53;;;;;;;12.00;3.80;;;;;;;;;;5026531;28;20112;-76
2022/06/20 12:48:19;;;;;;;10.32;2.95;;;;;;;;;;4996561;28;20132;-75
2022/06/20 12:51:04;;;;;;;15.00;3.15;;;;;;;;;;5025830;28;20483;-74
2022/06/20 12:53:42;;;;;;;13.98;3.42;;;;;;;;;;5023760;28;20022;-76
2022/06/20 12:56:08;;;;;;;12.23;3.28;;;;;;;;;;5017198;28;20021;-73
2022/06/20 12:58:40;;;;;;;14.48;2.65;;;;;;;;;;5012012;28;20045;-74
2022/06/20 13:01:09;;;;;;;9.02;2.78;;;;;;;;;;5020482;28;20034;-74
2022/06/20 13:03:56;;;;;;;12.82;3.10;;;;;;;;;;5025493;28;20037;-73
2022/06/20 13:06:22;;;;;;;12.70;2.92;;;;;;;;;;5015017;28;20477;-73
2022/06/20 13:09:06;;;;;;;14.57;3.30;;;;;;;;;;5030468;28;20108;-73
2022/06/20 13:11:51;;;;;;;13.35;3.03;;;;;;;;;;5042393;28;20463;-73
2022/06/20 13:14:23;;;;;;;14.23;2.92;;;;;;;;;;5022237;28;20487;-74
2022/06/20 13:16:58;;;;;;;11.88;3.25;;;;;;;;;;5022137;28;20029;-74
2022/06/20 13:19:24;;;;;;;6.90;2.05;;;;;;;;;;5015957;28;20034;-74
2022/06/20 13:21:53;;;;;;;8.00;2.20;;;;;;;;;;5021782;28;20031;-75
2022/06/20 13:24:40;;;;;;;7.13;2.10;;;;;;;;;;5032831;28;20032;-73
2022/06/20 13:27:16;;;;;;;6.28;2.03;;;;;;;;;;5012626;28;20034;-74
2022/06/20 13:29:51;;;;;;;10.10;2.15;;;;;;;;;;5041069;28;20038;-77
2022/06/20 13:32:28;;;;;;;4.93;1.77;;;;;;;;;;5021518;28;20499;-72
2022/06/20 13:35:14;;;;;;;5.35;1.75;;;;;;;;;;5024170;28;20096;-73
2022/06/20 13:37:59;;;;;;;6.10;2.08;;;;;;;;;;5032498;28;20060;-72
2022/06/20 13:40:31;;;;;;;4.97;2.10;;;;;;;;;;5030627;28;20030;-73
2022/06/20 13:43:06;;;;;;;8.02;2.00;;;;;;;;;;5025114;28;20467;-72
2022/06/20 13:45:42;;;;;;;8.07;1.80;;;;;;;;;;5024741;28;20498;-72
2022/06/20 13:48:22;;;;;;;5.22;2.08;;;;;;;;;;5018579;28;20018;-73
2022/06/20 13:50:52;;;;;;;7.50;1.85;;;;;;;;;;5029092;28;20036;-73
2022/06/20 13:53:25;;;;;;;5.20;1.50;;;;;;;;;;5024646;28;20029;-73
2022/06/20 13:56:00;;;;;;;6.35;1.42;;;;;;;;;;5028673;28;20274;-75
2022/06/20 13:58:42;;;;;;;6.90;1.60;;;;;;;;;;5029436;28;20057;-74
2022/06/20 14:01:10;;;;;;;7.65;1.60;;;;;;;;;;5025563;28;20080;-74
2022/06/20 14:03:46;;;;;;;7.40;1.92;;;;;;;;;;5024036;28;20518;-73
2022/06/20 14:06:15;;;;;;;6.22;1.77;;;;;;;;;;5019275;28;20077;-74
2022/06/20 14:09:01;;;;;;;7.50;2.10;;;;;;;;;;5013848;28;20026;-73
2022/06/20 14:11:33;;;;;;;7.78;1.88;;;;;;;;;;5039956;28;20022;-73
2022/06/20 14:14:01;;;;;;;6.20;2.05;;;;;;;;;;5027333;28;20017;-73
2022/06/20 14:16:30;;;;;;;6.72;1.88;;;;;;;;;;5030233;28;20079;-73
2022/06/20 14:18:59;;;;;;;5.70;1.80;;;;;;;;;;5029942;28;20517;-74
2022/06/20 14:21:42;;;;;;;6.38;1.80;;;;;;;;;;5021899;28;20099;-74
2022/06/20 14:24:17;;;;;;;5.50;2.00;;;;;;;;;;5020310;28;20087;-73
2022/06/20 14:26:44;;;;;;;6.32;2.10;;;;;;;;;;5017821;28;20060;-72
2022/06/20 14:29:18;;;;;;;12.10;2.00;;;;;;;;;;5022409;28;20021;-74
2022/06/20 14:32:06;;;;;;;9.27;2.50;;;;;;;;;;5028243;28;20041;-73
2022/06/20 14:34:40;;;;;;;9.43;2.10;;;;;;;;;;5019544;28;20112;-73
2022/06/20 14:37:06;;;;;;;10.75;2.33;;;;;;;;;;5039672;28;20030;-74
2022/06/20 14:39:40;;;;;;;8.00;2.25;;;;;;;;;;5044440;28;20041;-73
2022/06/20 14:42:10;;;;;;;10.32;2.13;;;;;;;;;;5022710;28;20463;-73
2022/06/20 14:44:56;;;;;;;10.73;2.08;;;;;;;;;;5024026;28;20037;-73
2022/06/20 14:47:22;;;;;;;6.45;2.05;;;;;;;;;;5024313;28;20108;-73
2022/06/20 14:49:54;;;;;;;7.47;2.03;;;;;;;;;;5024914;28;20712;-74
2022/06/20 14:52:20;;;;;;;12.10;2.20;;;;;;;;;;5027906;28;20073;-70
2022/06/20 14:54:46;;;;;;;11.48;2.20;;;;;;;;;;5024480;28;20502;-71
2022/06/20 14:57:19;;;;;;;10.27;2.30;;;;;;;;;;5024090;28;20140;-73
2022/06/20 15:00:03;;;;;;;10.63;2.28;;;;;;;;;;5025222;28;20017;-71
2022/06/20 15:02:29;;;;;;;11.38;2.20;;;;;;;;;;5018170;28;20482;-69
2022/06/20 15:04:58;;;;;;;8.60;2.05;;;;;;;;;;5027803;28;20052;-75
2022/06/20 15:07:27;;;;;;;8.93;2.17;;;;;;;;;;5019664;28;20025;-75
2022/06/20 15:09:55;;;;;;;7.82;2.03;;;;;;;;;;5021733;28;20451;-74
2022/06/20 15:12:45;;;;;;;8.10;2.47;;;;;;;;;;5021906;28;20029;-73
2022/06/20 15:15:14;;;;;;;7.72;2.40;;;;;;;;;;5026348;28;20036;-73
2022/06/20 15:17:51;;;;;;;7.22;2.03;;;;;;;;;;5031868;28;20116;-73